createdAt,value
2018-05-03T00:00:32.387Z,12.87
2018-05-03T00:03:02.983Z,12.84
2018-05-03T00:05:33.656Z,12.85
2018-05-03T00:08:04.304Z,12.69
2018-05-03T00:10:34.980Z,12.62
2018-05-03T00:13:05.698Z,11.80
2018-05-03T00:15:36.347Z,12.25
2018-05-03T00:18:06.893Z,11.94
2018-05-03T00:20:37.496Z,12.18
2018-05-03T00:23:08.186Z,12.11
2018-05-03T00:25:38.871Z,12.39
2018-05-03T00:28:09.483Z,11.91
2018-05-03T00:30:40.283Z,12.16
2018-05-03T00:33:11.149Z,12.21
2018-05-03T00:35:41.696Z,12.52
2018-05-03T00:38:12.519Z,12.62
2018-05-03T00:40:44.693Z,12.53
2018-05-03T00:43:15.651Z,12.38
2018-05-03T00:45:46.204Z,12.33
2018-05-03T00:48:16.804Z,12.44
2018-05-03T00:50:47.544Z,12.17
2018-05-03T00:53:18.083Z,12.29
2018-05-03T00:55:48.658Z,12.50
2018-05-03T00:58:19.357Z,12.23
2018-05-03T01:07:25.302Z,12.37
2018-05-03T01:09:55.994Z,12.46
2018-05-03T01:12:26.552Z,12.44
2018-05-03T01:14:57.040Z,12.45
2018-05-03T01:17:27.612Z,12.40
2018-05-03T01:19:58.674Z,12.42
2018-05-03T01:22:29.440Z,12.50
2018-05-03T01:25:00.077Z,12.48
2018-05-03T01:27:30.703Z,11.81
2018-05-03T01:30:01.580Z,12.13
2018-05-03T01:32:32.199Z,12.34
2018-05-03T01:35:11.504Z,12.39
2018-05-03T01:37:42.258Z,12.33
2018-05-03T01:40:12.953Z,12.29
2018-05-03T01:42:43.952Z,12.37
2018-05-03T01:45:14.504Z,12.43
2018-05-03T01:47:45.079Z,12.38
2018-05-03T01:50:15.748Z,12.34
2018-05-03T01:52:46.328Z,12.36
2018-05-03T01:55:16.975Z,12.27
2018-05-03T01:57:47.760Z,12.23
2018-05-03T02:00:18.379Z,12.00
2018-05-03T02:02:48.984Z,12.19
2018-05-03T02:05:19.545Z,12.17
2018-05-03T02:07:50.124Z,11.92
2018-05-03T02:10:20.791Z,11.98
2018-05-03T02:12:51.339Z,12.14
2018-05-03T02:15:21.991Z,12.03
2018-05-03T02:17:52.534Z,11.89
2018-05-03T02:20:23.280Z,11.91
2018-05-03T02:22:53.819Z,11.71
2018-05-03T02:25:24.546Z,11.69
2018-05-03T02:27:55.063Z,11.65
2018-05-03T02:30:25.867Z,11.67
2018-05-03T02:32:56.462Z,11.57
2018-05-03T02:35:27.069Z,11.62
2018-05-03T02:37:57.772Z,11.56
2018-05-03T02:40:28.305Z,11.68
2018-05-03T02:42:59.080Z,11.53
2018-05-03T02:45:29.601Z,11.46
2018-05-03T02:48:00.594Z,11.64
2018-05-03T02:50:31.449Z,11.82
2018-05-03T02:53:01.999Z,11.82
2018-05-03T02:55:32.595Z,11.46
2018-05-03T02:59:15.043Z,11.63
2018-05-03T03:02:54.858Z,11.52
2018-05-03T03:06:41.293Z,11.52
2018-05-03T03:09:17.270Z,11.40
2018-05-03T03:12:52.526Z,11.22
2018-05-03T03:16:38.546Z,11.34
2018-05-03T03:19:49.668Z,11.47
2018-05-03T03:22:35.105Z,11.44
2018-05-03T03:25:16.342Z,11.24
2018-05-03T03:28:01.935Z,11.28
2018-05-03T03:30:47.500Z,11.32
2018-05-03T03:34:27.565Z,11.33
2018-05-03T03:38:16.383Z,11.28
2018-05-03T03:41:56.603Z,11.21
2018-05-03T03:44:38.187Z,10.93
2018-05-03T03:47:08.814Z,11.03
2018-05-03T03:49:39.482Z,11.25
2018-05-03T03:52:09.968Z,11.42
2018-05-03T03:54:40.527Z,11.32
2018-05-03T03:57:11.118Z,11.44
2018-05-03T03:59:41.877Z,11.54
2018-05-03T04:02:12.508Z,11.22
2018-05-03T04:04:43.513Z,11.23
2018-05-03T04:07:14.109Z,11.37
2018-05-03T04:09:44.649Z,11.45
2018-05-03T04:12:15.444Z,11.43
2018-05-03T04:14:46.033Z,11.21
2018-05-03T04:17:16.607Z,11.59
2018-05-03T04:20:12.939Z,11.63
2018-05-03T04:23:07.015Z,11.47
2018-05-03T04:25:48.393Z,11.55
2018-05-03T04:28:19.124Z,11.67
2018-05-03T04:30:49.839Z,11.54
2018-05-03T04:33:20.433Z,11.56
2018-05-03T04:35:51.055Z,11.67
2018-05-03T04:38:21.565Z,11.25
2018-05-03T04:40:52.099Z,11.50
2018-05-03T04:43:22.782Z,11.28
2018-05-03T04:45:53.383Z,11.29
2018-05-03T04:48:24.047Z,11.49
2018-05-03T04:50:54.660Z,11.57
2018-05-03T04:53:25.239Z,11.65
2018-05-03T04:55:55.768Z,11.61
2018-05-03T04:58:26.348Z,11.55
2018-05-03T05:00:56.916Z,11.66
2018-05-03T05:03:27.576Z,11.64
2018-05-03T05:05:58.263Z,11.62
2018-05-03T05:08:28.880Z,11.67
2018-05-03T05:10:59.543Z,11.34
2018-05-03T05:13:30.216Z,11.36
2018-05-03T05:16:00.847Z,11.60
2018-05-03T05:18:31.439Z,11.32
2018-05-03T05:21:01.936Z,11.60
2018-05-03T05:23:32.539Z,11.83
2018-05-03T05:26:03.098Z,11.94
2018-05-03T05:28:33.767Z,11.97
2018-05-03T05:31:04.279Z,12.21
2018-05-03T05:33:34.940Z,12.21
2018-05-03T05:36:05.564Z,12.15
2018-05-03T05:38:36.182Z,12.09
2018-05-03T05:41:06.755Z,12.08
2018-05-03T05:43:37.347Z,12.17
2018-05-03T05:46:07.837Z,12.43
2018-05-03T05:48:38.518Z,12.50
2018-05-03T05:51:09.131Z,12.46
2018-05-03T05:53:39.925Z,12.90
2018-05-03T05:56:11.376Z,12.64
2018-05-03T05:58:42.056Z,12.95
2018-05-03T06:01:12.862Z,12.56
2018-05-03T06:03:43.660Z,12.63
2018-05-03T06:06:14.248Z,12.89
2018-05-03T06:08:44.943Z,13.01
2018-05-03T06:11:15.714Z,12.87
2018-05-03T06:13:46.429Z,12.91
2018-05-03T06:16:17.008Z,12.96
2018-05-03T06:18:47.736Z,12.90
2018-05-03T06:21:18.383Z,12.85
2018-05-03T06:23:49.258Z,13.05
2018-05-03T06:26:20.295Z,13.04
2018-05-03T06:28:51.137Z,13.14
2018-05-03T06:31:21.861Z,13.58
2018-05-03T06:33:52.749Z,13.32
2018-05-03T06:36:23.755Z,13.32
2018-05-03T06:38:54.440Z,13.41
2018-05-03T06:41:25.128Z,13.33
2018-05-03T06:43:55.770Z,13.55
2018-05-03T06:46:26.355Z,13.72
2018-05-03T06:48:56.923Z,13.66
2018-05-03T06:51:27.677Z,13.65
2018-05-03T06:53:58.249Z,13.82
2018-05-03T06:56:28.910Z,13.89
2018-05-03T06:58:59.789Z,14.06
2018-05-03T07:01:30.363Z,14.31
2018-05-03T07:04:01.099Z,14.39
2018-05-03T07:06:32.418Z,14.39
2018-05-03T07:09:02.948Z,14.19
2018-05-03T07:11:33.883Z,14.04
2018-05-03T07:14:04.487Z,13.73
2018-05-03T07:16:35.183Z,13.74
2018-05-03T07:19:05.850Z,13.68
2018-05-03T07:21:36.399Z,13.67
2018-05-03T07:24:07.918Z,13.97
2018-05-03T07:26:55.933Z,14.00
2018-05-03T07:29:26.586Z,13.55
2018-05-03T07:31:57.156Z,13.96
2018-05-03T07:34:35.351Z,13.79
2018-05-03T07:37:05.947Z,13.50
2018-05-03T07:39:36.476Z,13.48
2018-05-03T07:42:07.416Z,13.47
2018-05-03T07:44:38.157Z,13.79
2018-05-03T07:47:09.164Z,14.04
2018-05-03T07:49:39.847Z,13.75
2018-05-03T07:52:10.567Z,13.58
2018-05-03T07:54:41.136Z,13.69
2018-05-03T07:57:11.740Z,13.71
2018-05-03T07:59:42.437Z,15.37
2018-05-03T08:02:13.287Z,16.20
2018-05-03T08:04:44.052Z,15.51
2018-05-03T08:07:14.896Z,15.23
2018-05-03T08:09:45.499Z,15.29
2018-05-03T08:12:16.431Z,14.89
2018-05-03T08:14:46.921Z,14.86
2018-05-03T08:17:17.849Z,14.55
2018-05-03T08:19:48.563Z,13.98
2018-05-03T08:22:19.440Z,14.08
2018-05-03T08:24:50.183Z,13.90
2018-05-03T08:27:20.865Z,14.10
2018-05-03T08:29:51.515Z,14.07
2018-05-03T08:32:22.304Z,13.90
2018-05-03T08:34:53.063Z,14.13
2018-05-03T08:37:23.789Z,13.91
2018-05-03T08:39:54.415Z,13.74
2018-05-03T08:42:25.503Z,13.97
2018-05-03T08:44:56.365Z,14.07
2018-05-03T08:47:27.120Z,14.22
2018-05-03T08:49:57.819Z,14.32
2018-05-03T08:52:28.457Z,14.19
2018-05-03T08:54:59.239Z,14.20
2018-05-03T08:57:30.170Z,14.43
2018-05-03T09:00:00.742Z,14.25
2018-05-03T09:02:31.417Z,14.95
2018-05-03T09:05:02.357Z,14.75
2018-05-03T09:07:33.580Z,14.70
2018-05-03T09:10:04.280Z,14.84
2018-05-03T09:12:35.252Z,14.85
2018-05-03T09:15:05.915Z,14.85
2018-05-03T09:17:36.641Z,14.71
2018-05-03T09:20:07.273Z,14.64
2018-05-03T09:22:37.944Z,14.44
2018-05-03T09:25:08.689Z,14.84
2018-05-03T09:27:39.498Z,15.38
2018-05-03T09:30:10.281Z,15.49
2018-05-03T09:32:41.345Z,15.38
2018-05-03T09:35:11.980Z,15.36
2018-05-03T09:37:42.977Z,15.69
2018-05-03T09:40:13.489Z,15.55
2018-05-03T09:42:44.232Z,15.19
2018-05-03T09:45:14.903Z,15.45
2018-05-03T09:47:45.560Z,16.00
2018-05-03T09:50:16.204Z,16.37
2018-05-03T09:52:46.847Z,16.06
2018-05-03T09:55:17.362Z,15.77
2018-05-03T09:57:48.253Z,15.88
2018-05-03T10:00:18.830Z,15.69
2018-05-03T10:02:49.993Z,15.88
2018-05-03T10:05:20.620Z,15.87
2018-05-03T10:07:51.769Z,15.51
2018-05-03T10:10:22.510Z,15.54
2018-05-03T10:12:53.136Z,15.83
2018-05-03T10:15:23.763Z,15.70
2018-05-03T10:17:54.352Z,15.26
2018-05-03T10:20:24.912Z,15.77
2018-05-03T10:22:55.551Z,15.97
2018-05-03T10:25:26.327Z,15.68
2018-05-03T10:27:57.211Z,15.53
2018-05-03T10:30:27.881Z,16.04
2018-05-03T10:32:58.540Z,15.72
2018-05-03T10:35:29.292Z,16.07
2018-05-03T10:38:00.199Z,16.06
2018-05-03T10:40:30.847Z,16.06
2018-05-03T10:43:01.904Z,15.95
2018-05-03T10:45:33.657Z,15.85
2018-05-03T10:48:04.658Z,16.06
2018-05-03T10:50:35.348Z,16.15
2018-05-03T10:53:06.115Z,16.34
2018-05-03T10:55:36.783Z,15.95
2018-05-03T10:58:07.503Z,16.05
2018-05-03T11:00:38.483Z,16.10
2018-05-03T11:03:09.198Z,16.05
2018-05-03T11:05:39.902Z,16.23
2018-05-03T11:08:10.714Z,16.31
2018-05-03T11:10:41.341Z,16.29
2018-05-03T11:13:11.929Z,16.71
2018-05-03T11:15:42.569Z,16.77
2018-05-03T11:18:13.196Z,16.62
2018-05-03T11:20:43.843Z,16.22
2018-05-03T11:23:14.480Z,16.45
2018-05-03T11:25:45.205Z,16.70
2018-05-03T11:28:15.850Z,16.53
2018-05-03T11:30:46.343Z,16.61
2018-05-03T11:33:17.042Z,16.70
2018-05-03T11:35:47.689Z,16.58
2018-05-03T11:38:21.416Z,16.80
2018-05-03T11:40:55.151Z,17.12
2018-05-03T11:43:30.029Z,17.17
2018-05-03T11:46:03.773Z,17.54
2018-05-03T11:48:35.010Z,18.16
2018-05-03T11:51:05.750Z,18.10
2018-05-03T11:53:36.774Z,17.72
2018-05-03T11:56:07.550Z,17.20
2018-05-03T11:58:38.542Z,17.29
2018-05-03T12:01:09.604Z,16.94
2018-05-03T12:03:40.489Z,16.59
2018-05-03T12:06:11.071Z,16.61
2018-05-03T12:08:42.044Z,16.96
2018-05-03T12:11:12.899Z,16.58
2018-05-03T12:13:43.643Z,16.84
2018-05-03T12:16:14.481Z,16.79
2018-05-03T12:18:45.467Z,16.78
2018-05-03T12:21:15.987Z,16.95
2018-05-03T12:23:46.774Z,17.23
2018-05-03T12:26:17.466Z,17.49
2018-05-03T12:28:48.257Z,17.20
2018-05-03T12:31:19.093Z,16.97
2018-05-03T12:33:49.916Z,17.13
2018-05-03T12:36:20.687Z,17.02
2018-05-03T12:38:51.330Z,17.16
2018-05-03T12:41:22.215Z,16.96
2018-05-03T12:43:52.886Z,17.29
2018-05-03T12:46:23.431Z,17.50
2018-05-03T12:48:54.101Z,17.88
2018-05-03T12:51:24.817Z,17.93
2018-05-03T12:53:55.457Z,17.78
2018-05-03T12:56:26.185Z,17.88
2018-05-03T12:58:56.812Z,17.16
2018-05-03T13:01:27.408Z,17.67
2018-05-03T13:03:58.116Z,17.89
2018-05-03T13:06:28.785Z,17.98
2018-05-03T13:08:59.400Z,17.98
2018-05-03T13:11:30.009Z,17.93
2018-05-03T13:14:00.704Z,18.44
2018-05-03T13:16:31.417Z,17.11
2018-05-03T13:19:02.154Z,17.75
2018-05-03T13:21:32.820Z,18.20
2018-05-03T13:24:03.500Z,18.07
2018-05-03T13:26:34.596Z,17.93
2018-05-03T13:29:05.194Z,18.53
2018-05-03T13:31:39.172Z,18.30
2018-05-03T13:34:09.819Z,18.35
2018-05-03T13:36:40.725Z,17.94
2018-05-03T13:39:16.577Z,18.72
2018-05-03T13:41:53.007Z,17.62
2018-05-03T13:44:25.632Z,17.51
2018-05-03T13:46:56.315Z,17.66
2018-05-03T13:49:27.215Z,18.00
2018-05-03T13:51:59.283Z,18.27
2018-05-03T13:54:32.432Z,18.56
2018-05-03T13:57:03.203Z,18.52
2018-05-03T13:59:33.889Z,18.64
2018-05-03T14:02:04.597Z,18.64
2018-05-03T14:04:35.233Z,18.58
2018-05-03T14:07:05.921Z,17.89
2018-05-03T14:09:36.560Z,17.39
2018-05-03T14:12:07.342Z,17.61
2018-05-03T14:14:37.928Z,17.79
2018-05-03T14:17:08.590Z,17.97
2018-05-03T14:19:39.336Z,18.23
2018-05-03T14:22:09.904Z,18.57
2018-05-03T14:24:40.600Z,18.74
2018-05-03T14:27:11.347Z,17.31
2018-05-03T14:29:42.040Z,17.47
2018-05-03T14:32:14.704Z,17.36
2018-05-03T14:34:45.771Z,17.48
2018-05-03T14:37:16.307Z,17.87
2018-05-03T14:39:47.037Z,18.04
2018-05-03T14:42:17.671Z,18.14
2018-05-03T14:44:48.409Z,18.46
2018-05-03T14:47:19.500Z,18.06
2018-05-03T14:49:50.392Z,17.80
2018-05-03T14:52:20.963Z,17.93
2018-05-03T14:54:51.596Z,18.23
2018-05-03T14:57:22.255Z,18.48
2018-05-03T14:59:53.006Z,18.17
2018-05-03T15:02:23.900Z,17.37
2018-05-03T15:04:55.037Z,17.17
2018-05-03T15:07:25.753Z,16.96
2018-05-03T15:10:02.161Z,17.21
2018-05-03T15:12:33.052Z,17.22
2018-05-03T15:15:07.165Z,17.78
2018-05-03T15:17:38.159Z,17.23
2018-05-03T15:20:08.833Z,17.41
2018-05-03T15:22:41.927Z,17.82
2018-05-03T15:25:13.750Z,18.10
2018-05-03T15:27:44.354Z,18.27
2018-05-03T15:30:15.055Z,18.34
2018-05-03T15:32:45.612Z,18.41
2018-05-03T15:35:17.760Z,17.64
2018-05-03T15:37:50.803Z,17.42
2018-05-03T15:40:23.025Z,17.31
2018-05-03T15:42:55.984Z,17.30
2018-05-03T15:45:26.600Z,17.16
2018-05-03T15:47:57.478Z,16.71
2018-05-03T15:50:28.722Z,16.82
2018-05-03T15:52:59.457Z,17.35
2018-05-03T15:55:30.196Z,17.30
2018-05-03T15:58:00.860Z,17.09
2018-05-03T16:00:31.438Z,16.72
2018-05-03T16:03:02.176Z,16.65
2018-05-03T16:05:32.794Z,16.92
2018-05-03T16:08:03.673Z,17.13
2018-05-03T16:10:34.762Z,17.27
2018-05-03T16:13:07.029Z,17.01
2018-05-03T16:15:38.661Z,16.60
2018-05-03T16:18:10.252Z,16.59
2018-05-03T16:20:41.756Z,16.33
2018-05-03T16:23:12.726Z,16.22
2018-05-03T16:25:44.477Z,16.09
2018-05-03T16:28:16.449Z,16.17
2018-05-03T16:30:48.601Z,16.24
2018-05-03T16:33:22.238Z,16.04
2018-05-03T16:35:55.013Z,16.22
2018-05-03T16:38:27.439Z,16.24
2018-05-03T16:40:58.394Z,16.09
2018-05-03T16:43:29.637Z,15.94
2018-05-03T16:46:01.749Z,16.15
2018-05-03T16:48:32.461Z,16.07
2018-05-03T16:51:04.657Z,16.48
2018-05-03T16:53:41.072Z,16.55
2018-05-03T16:56:11.692Z,16.45
2018-05-03T16:58:42.363Z,16.31
2018-05-03T17:01:13.005Z,16.08
2018-05-03T17:03:43.649Z,15.86
2018-05-03T17:06:14.356Z,15.97
2018-05-03T17:08:45.131Z,16.29
2018-05-03T17:11:15.889Z,16.19
2018-05-03T17:13:47.136Z,16.06
2018-05-03T17:16:17.834Z,16.41
2018-05-03T17:18:48.660Z,16.22
2018-05-03T17:21:19.331Z,15.79
2018-05-03T17:23:49.965Z,15.57
2018-05-03T17:26:20.800Z,15.73
2018-05-03T17:28:51.638Z,15.76
2018-05-03T17:31:22.692Z,15.96
2018-05-03T17:33:53.619Z,15.80
2018-05-03T17:36:24.475Z,15.73
2018-05-03T17:38:55.434Z,15.41
2018-05-03T17:41:26.801Z,15.43
2018-05-03T17:43:58.764Z,15.46
2018-05-03T17:46:29.538Z,15.31
2018-05-03T17:49:00.220Z,15.31
2018-05-03T17:51:30.962Z,15.20
2018-05-03T17:54:02.372Z,15.34
2018-05-03T17:56:33.179Z,15.42
2018-05-03T17:59:05.080Z,14.96
2018-05-03T18:01:35.933Z,15.36
2018-05-03T18:04:11.717Z,15.38
2018-05-03T18:06:43.651Z,15.41
2018-05-03T18:09:15.395Z,15.13
2018-05-03T18:11:49.536Z,15.37
2018-05-03T18:14:20.665Z,15.78
2018-05-03T18:16:51.724Z,15.37
2018-05-03T18:19:22.343Z,15.36
2018-05-03T18:21:53.229Z,15.34
2018-05-03T18:24:23.990Z,15.35
2018-05-03T18:26:54.938Z,15.13
2018-05-03T18:29:26.314Z,14.94
2018-05-03T18:31:57.113Z,14.95
2018-05-03T18:34:28.497Z,15.11
2018-05-03T18:36:59.969Z,14.68
2018-05-03T18:39:32.343Z,15.18
2018-05-03T18:42:03.609Z,14.85
2018-05-03T18:44:35.555Z,14.77
2018-05-03T18:47:06.687Z,14.93
2018-05-03T18:49:38.051Z,15.12
2018-05-03T18:52:10.366Z,14.77
2018-05-03T18:54:41.837Z,14.55
2018-05-03T18:57:13.595Z,14.81
2018-05-03T18:59:45.547Z,14.91
2018-05-03T19:02:16.743Z,14.66
2018-05-03T19:04:53.722Z,14.86
2018-05-03T19:07:27.324Z,14.95
2018-05-03T19:09:58.863Z,14.45
2018-05-03T19:12:31.027Z,14.69
2018-05-03T19:15:02.474Z,14.48
2018-05-03T19:17:35.203Z,14.51
2018-05-03T19:20:06.405Z,14.72
2018-05-03T19:22:37.387Z,14.96
2018-05-03T19:25:09.696Z,14.75
2018-05-03T19:27:40.746Z,14.82
2018-05-03T19:30:12.422Z,14.86
2018-05-03T19:32:44.517Z,14.41
2018-05-03T19:35:16.354Z,14.74
2018-05-03T19:37:47.665Z,14.71
2018-05-03T19:40:19.549Z,14.44
2018-05-03T19:42:50.834Z,14.53
2018-05-03T19:45:23.198Z,15.06
2018-05-03T19:47:54.663Z,14.45
2018-05-03T19:50:26.831Z,14.82
2018-05-03T19:53:03.655Z,14.81
2018-05-03T19:55:35.373Z,14.73
2018-05-03T19:58:07.139Z,14.32
2018-05-03T20:00:44.187Z,14.32
2018-05-03T20:03:17.522Z,14.16
2018-05-03T20:05:49.558Z,14.31
2018-05-03T20:08:22.233Z,14.50
2018-05-03T20:10:53.815Z,14.67
2018-05-03T20:13:25.090Z,14.60
2018-05-03T20:15:56.578Z,14.40
2018-05-03T20:18:28.400Z,14.45
2018-05-03T20:20:59.676Z,14.53
2018-05-03T20:23:31.660Z,14.64
2018-05-03T20:26:02.827Z,14.70
2018-05-03T20:28:34.293Z,14.28
2018-05-03T20:31:05.755Z,14.39
2018-05-03T20:33:37.011Z,14.33
2018-05-03T20:36:08.853Z,14.26
2018-05-03T20:38:40.598Z,14.79
2018-05-03T20:41:11.809Z,14.39
2018-05-03T20:43:43.622Z,14.17
2018-05-03T20:46:15.174Z,14.20
2018-05-03T20:48:46.324Z,14.29
2018-05-03T20:51:17.510Z,14.25
2018-05-03T20:53:48.776Z,14.37
2018-05-03T20:56:19.920Z,14.15
2018-05-03T20:58:51.140Z,13.97
2018-05-03T21:01:22.852Z,14.29
2018-05-03T21:03:54.781Z,14.06
2018-05-03T21:06:26.001Z,14.27
2018-05-03T21:08:57.033Z,14.18
2018-05-03T21:11:28.916Z,14.23
2018-05-03T21:14:00.120Z,14.10
2018-05-03T21:16:31.688Z,14.16
2018-05-03T21:19:04.542Z,14.11
2018-05-03T21:21:35.997Z,14.34
2018-05-03T21:24:07.761Z,14.02
2018-05-03T21:26:39.028Z,13.94
2018-05-03T21:29:10.253Z,13.59
2018-05-03T21:31:40.913Z,13.80
2018-05-03T21:34:11.697Z,13.95
2018-05-03T21:36:42.501Z,13.75
2018-05-03T21:39:13.413Z,13.77
2018-05-03T21:41:44.026Z,13.63
2018-05-03T21:44:14.977Z,13.74
2018-05-03T21:46:45.651Z,13.58
2018-05-03T21:49:16.432Z,13.66
2018-05-03T21:51:47.474Z,13.55
2018-05-03T21:57:41.151Z,13.74
2018-05-03T22:00:17.621Z,13.75
2018-05-03T22:02:49.044Z,13.74
2018-05-03T22:05:19.613Z,13.48
2018-05-03T22:07:50.454Z,13.63
2018-05-03T22:10:21.040Z,13.70
2018-05-03T22:12:51.771Z,13.84
2018-05-03T22:15:22.592Z,13.96
2018-05-03T22:17:53.500Z,14.05
2018-05-03T22:20:24.292Z,14.73
2018-05-03T22:22:55.320Z,14.25
2018-05-03T22:25:26.101Z,14.43
2018-05-03T22:27:56.929Z,14.14
2018-05-03T22:30:27.811Z,14.31
2018-05-03T22:32:58.571Z,14.37
2018-05-03T22:35:29.370Z,14.32
2018-05-03T22:38:00.101Z,14.48
2018-05-03T22:40:31.017Z,14.71
2018-05-03T22:43:02.117Z,14.07
2018-05-03T22:45:32.952Z,13.92
2018-05-03T22:48:03.689Z,13.94
2018-05-03T22:50:34.416Z,13.58
2018-05-03T22:53:05.275Z,13.65
2018-05-03T22:55:35.886Z,13.87
2018-05-03T22:58:06.936Z,13.70
2018-05-03T23:00:37.635Z,13.83
2018-05-03T23:03:08.844Z,13.85
2018-05-03T23:05:40.026Z,13.51
2018-05-03T23:08:10.917Z,13.99
2018-05-03T23:10:41.823Z,13.64
2018-05-03T23:13:13.046Z,13.87
2018-05-03T23:15:44.705Z,14.14
2018-05-03T23:18:15.473Z,13.85
2018-05-03T23:20:46.422Z,13.67
2018-05-03T23:23:17.122Z,13.55
2018-05-03T23:25:47.781Z,13.55
2018-05-03T23:28:18.536Z,13.46
2018-05-03T23:30:49.212Z,13.70
2018-05-03T23:33:19.801Z,13.58
2018-05-03T23:35:50.738Z,13.46
2018-05-03T23:38:21.349Z,13.88
2018-05-03T23:40:52.207Z,14.01
2018-05-03T23:43:22.875Z,13.34
2018-05-03T23:45:53.591Z,13.72
2018-05-03T23:48:24.163Z,13.85
2018-05-03T23:50:55.096Z,13.60
2018-05-03T23:53:25.972Z,13.81
2018-05-03T23:55:56.812Z,13.82
2018-05-03T23:58:27.579Z,13.82
